Whale Point, California Weather observations

Data are for observation ending at time listed.
 Day   Time    Ave.   Ave.  Ave.  Vector   Max.   Stn.    Total    Solar   Ave.  
  of    of     Air    Rel.  Wind   Wind    Wind   Baro.  Precip.   Rad.    Soil  
Year   Day     Temp.  Hum.  Speed  Dir.    Gust   Pres.                    Temp. 
2016   (PST)    F      %     mph   deg.    mph     mb.     in.     W/m2     F   
------------------------------------------------------------------------------
 268   11:40   77.6    22    4.6   188      8.2   997.6    0.00     862    68.5
 268   11:50   77.8    22    4.5   189      8.3   997.6    0.00     863    68.6
 268   12:00   76.6    23    5.1   192      8.7   997.6    0.00     862    68.7
 268   12:10   77.2    23    4.4   199      8.4   997.6    0.00     855    68.8
 268   12:20   76.2    29    5.1   201     13.7   998.0    0.00     857    69.0
 268   12:30   67.0    51    5.0   188     14.2   998.0    0.00     851    69.2
 268   12:40   66.3    53    3.3   200      6.4   997.6    0.00     845    69.3
 268   12:50   67.9    50    2.8   208      5.5   997.6    0.00     836    69.5
 268   13:00   68.6    48    3.4   210      6.2   997.3    0.00     825    69.6
 268   13:10   70.7    43    4.1   199      6.9   997.3    0.00     812    69.8
 268   13:20   71.6    40    3.8   194      6.1   997.3    0.00     799    70.1
 268   13:30   73.4    34    3.5   189      5.8   997.0    0.00     783    70.3
 268   13:40   76.4    30    2.7   198      4.5   997.0    0.00     763    70.5
 268   13:50   79.1    25    3.5   218      5.5   997.0    0.00     736    70.7
 268   14:00   81.5    22    3.6   200      5.0   997.0    0.00     723    70.9
 268   14:10   82.0    22    3.4   197      5.1   997.0    0.00     702    71.2
 268   14:20   81.0    28    3.5   194      5.5   996.6    0.00     673    71.4
 268   14:30   76.0    33    3.3   198      5.4   996.6    0.00     656    71.7
 268   14:40   73.2    37    2.8   199      5.3   996.6    0.00     630    71.9
 268   14:50   74.2    35    3.8   190      7.1   996.3    0.00     602    72.2
 268   15:00   73.1    36    4.2   184      6.7   996.3    0.00     572    72.4
 268   15:10   75.5    34    3.3   191      5.8   996.3    0.00     541    72.7
 268   15:20   75.9    33    3.5   189      6.4   996.3    0.00     508    72.9
 268   15:30   75.2    32    3.1   182      5.7   996.3    0.00     476    73.2
 268   15:40   76.2    30    3.1   174      4.7   996.3    0.00     449    73.4
 268   15:50   77.3    28    2.8   183      4.6   996.3    0.00     416    73.7
 268   16:00   78.3    26    2.8   171      4.2   995.9    0.00     383    73.9
 268   16:10   79.0    25    3.1   213      5.7   995.9    0.00     349    74.1
 268   16:20   79.3    23    2.7   188      5.8   995.9    0.00     314    74.4
 268   16:30   80.1    23    2.7   206      5.5   995.6    0.00     280    74.6
 268   16:40   78.7    25    2.2   239      4.4   995.6    0.00     244    74.8
 268   16:50   76.7    31    2.1   209      4.5   995.6    0.00     210    75.0
 268   17:00   76.9    34    0.8   238      2.3   995.6    0.00     175    75.2
 268   17:10   73.9    43    1.1   193      2.9   995.6    0.00     145    75.4
 268   17:20   70.7    50    1.7   187      3.6   995.6    0.00     111    75.6
 268   17:30   69.1    51    0.9   211      2.4   995.6    0.00      80    75.8
 268   17:40   69.0    50    1.0    23      2.3   995.6    0.00      53    75.9
 268   17:50   69.6    43    0.6    18      1.5   995.3    0.00      28    76.0
 268   18:00   71.7    37    0.8   123      1.6   995.3    0.00      11    76.1
 268   18:10   73.0    29    0.6    78      1.3   995.3    0.00       2    76.2
 268   18:20   74.3    28    0.6    33      2.6   995.3    0.00       1    76.4
 268   18:30   73.5    29    1.0   153      2.4   995.3    0.00       0    76.4
 268   18:40   73.2    29    0.1   356      0.7   995.3    0.00       0    76.5
 268   18:50   73.6    28    0.7   142      2.0   995.3    0.00       0    76.5
 268   19:00   74.3    28    0.7   147      2.1   995.3    0.00       0    76.5
 268   19:10   74.5    28    0.6    40      1.7   995.3    0.00       0    76.6
 268   19:20   75.0    28    0.4   148      1.5   995.3    0.00       0    76.6
 268   19:30   75.4    28    0.6   176      1.5   995.6    0.00       0    76.6
 268   19:40   74.9    29    1.5   160      3.0   995.6    0.00       0    76.5
 268   19:50   75.8    29    0.9   143      2.3   995.6    0.00       0    76.5
 268   20:00   75.9    29    0.9   116      2.3   995.6    0.00       0    76.5
 268   20:10   78.0    28    1.5    87      6.0   995.6    0.00       0    76.4
 268   20:20   80.2    26    4.4    30      7.5   995.6    0.00       0    76.4
 268   20:30   80.8    25    3.3    35      6.0   995.6    0.00       0    76.3
 268   20:40   81.1    25    2.1    33      5.8   995.6    0.00       0    76.2
 268   20:50   79.9    26    1.7    96      5.2   995.6    0.00       0    76.2
 268   21:00   79.4    27    3.0    41      6.9   995.6    0.00       0    76.1
 268   21:10   80.0    26    4.9    59      9.9   995.6    0.00       0    76.0
 268   21:20   79.9    25    6.8    64     11.0   995.6    0.00       0    75.9
 268   21:30   80.4    25    7.2    58     12.1   995.9    0.00       0    75.8
 268   21:40   80.3    25    5.3    62     10.0   995.9    0.00       0    75.8
 268   21:50   80.7    26    8.9    54     14.3   995.6    0.00       0    75.8
 268   22:00   81.1    25    9.4    56     14.5   995.9    0.00       0    75.7
 268   22:10   80.8    25    6.8    59     12.9   995.9    0.00       0    75.6
 268   22:20   80.9    25    6.1    57     13.7   995.9    0.00       0    75.5
 268   22:30   80.9    24    6.3    55     13.5   995.9    0.00       0    75.4
 268   22:40   80.9    24    5.5    41     13.1   995.9    0.00       0    75.4
 268   22:50   81.1    23    6.4    48     11.7   995.9    0.00       0    75.3
 268   23:00   80.9    22    4.8    57      9.6   995.9    0.00       0    75.2
 268   23:10   80.8    22    3.4    35      7.5   995.9    0.00       0    75.2
 268   23:20   80.3    21    2.8    90      6.7   995.9    0.00       0    75.1
 268   23:30   79.4    21    2.7   131      7.2   995.9    0.00       0    75.1
 268   23:40   78.5    22    2.1   137      4.9   995.9    0.00       0    75.0
 268   23:50   75.5    27    2.3   183      5.0   995.6    0.00       0    74.9
 269    0:00   74.4    28    0.8    18      2.8   995.9    0.00       0    74.9
 269    0:10   74.8    27    1.1   134      2.6   995.9    0.00       0    74.8
 269    0:20   74.9    27    1.3    11      2.6   995.6    0.00       0    74.7
 269    0:30   76.6    24    2.9    76      5.6   995.6    0.00       0    74.6
 269    0:40   78.2    23    2.0   101      4.5   995.6    0.00       0    74.6
 269    0:50   78.1    23    2.2   125      4.5   995.6    0.00       0    74.5
 269    1:00   76.4    26    1.4   148      3.9   995.6    0.00       0    74.4
 269    1:10   75.1    28    2.3   140      4.7   995.6    0.00       0    74.4
 269    1:20   74.6    29    2.0   137      5.0   995.6    0.00       0    74.3
 269    1:30   75.1    28    1.0    34      2.8   995.6    0.00       0    74.2
 269    1:40   76.1    24    3.1    88      6.9   995.6    0.00       0    74.2
 269    1:50   76.3    24    3.6    91      6.4   995.3    0.00       0    74.1
 269    2:00   76.7    24    3.0    85      5.6   995.3    0.00       0    74.0
 269    2:10   76.8    24    4.6    71      9.2   995.3    0.00       0    74.0
 269    2:20   76.7    24    6.3    77      8.4   994.9    0.00       0    73.9
 269    2:30   76.9    24    5.6    78      9.0   994.9    0.00       0    73.8
 269    2:40   76.6    24    3.3    92      7.3   994.9    0.00       0    73.7
 269    2:50   76.0    24    3.2   109      6.1   994.6    0.00       0    73.7
 269    3:00   75.4    25    2.0   106      6.1   994.6    0.00       0    73.6
 269    3:10   74.4    26    2.9    52      5.5   994.6    0.00       0    73.6
 269    3:20   74.7    25    4.4    63      7.9   994.6    0.00       0    73.5
 269    3:30   76.0    24    4.9    68      7.9   994.2    0.00       0    73.4
 269    3:40   75.9    24    6.9    70      9.2   994.2    0.00       0    73.3
 269    3:50   76.1    24    5.4    79      8.7   994.2    0.00       0    73.3
 269    4:00   76.1    24    6.0    69      8.7   994.2    0.00       0    73.2
 269    4:10   76.5    23    3.3    95      7.1   994.6    0.00       0    73.2
 269    4:20   75.8    25    2.1   111      6.2   994.6    0.00       0    73.1
 269    4:30   75.5    26    2.3    80      4.4   994.6    0.00       0    73.1
 269    4:40   77.2    24    1.6   109      3.7   994.6    0.00       0    73.0
 269    4:50   76.7    24    3.2    95      6.9   994.6    0.00       0    73.0
 269    5:00   76.5    23    5.4    85      9.4   994.6    0.00       0    72.9
 269    5:10   76.2    23    8.0    74     11.1   994.6    0.00       0    72.8
 269    5:20   76.8    22    5.3    96      9.1   994.6    0.00       0    72.8
 269    5:30   77.0    22    3.3   114      7.0   994.9    0.00       0    72.7
 269    5:40   73.8    30    3.9   169      7.8   994.9    0.00       0    72.7
 269    5:50   71.3    34    1.7    25      5.6   994.9    0.00       1    72.6
 269    6:00   71.2    34    2.0    65      4.7   995.3    0.00       4    72.6
 269    6:10   73.9    24    3.5    78      7.7   995.3    0.00       7    72.5
 269    6:20   74.9    23    2.8   108      6.2   995.3    0.00      10    72.5
 269    6:30   74.7    22    2.5    96      5.8   995.3    0.00      12    72.4
 269    6:40   75.4    22    2.4    89      5.7   995.6    0.00      14    72.4
 269    6:50   75.6    20    3.4    90      7.7   995.6    0.00      16    72.3
 269    7:00   76.0    20    2.4    75      6.4   995.6    0.00      18    72.3
 269    7:10   75.6    24    2.9   105      6.6   995.9    0.00      19    72.2
 269    7:20   72.8    29    2.0    94      5.3   995.9    0.00      20    72.2
 269    7:30   73.0    29    2.4   159      4.2   995.9    0.00      21    72.1
 269    7:40   72.3    30    1.2   116      3.1   995.9    0.00      24    72.1
 269    7:50   73.7    28    0.6    14      1.8   995.9    0.00     319    72.0
 269    8:00   74.8    28    1.2   127      3.0   996.3    0.00     392    71.9
 269    8:10   74.8    29    1.4   185      3.0   996.3    0.00     426    71.9
 269    8:20   75.1    29    2.2   160      3.5   996.3    0.00     458    71.8
 269    8:30   76.1    30    2.0   165      3.2   996.3    0.00     491    71.8
 269    8:40   76.7    29    1.4   126      2.6   996.3    0.00     523    71.8
 269    8:50   78.3    27    0.9    21      2.0   996.3    0.00     554    71.7
 269    9:00   80.0    26    0.7   348      2.5   996.3    0.00     584    71.7
 269    9:10   81.7    25    0.7   194      1.9   996.6    0.00     613    71.6
 269    9:20   83.5    24    0.6   216      1.4   996.6    0.00     640    71.6
 269    9:30   83.8    21    1.1   220      4.0   996.6    0.00     665    71.5
 269    9:40   84.9    19    2.6   196      3.9   996.6    0.00     688    71.5
 269    9:50   85.5    19    2.9   200      5.8   996.6    0.00     711    71.5
 269   10:00   85.7    18    3.1   196      5.1   996.6    0.00     733    71.5
 269   10:10   85.2    20    2.6   205      5.8   996.3    0.00     752    71.5
 269   10:20   84.0    21    2.9   194      5.5   996.3    0.00     770    71.5
 269   10:30   84.9    20    3.0   222      4.7   996.3    0.00     787    71.5
 269   10:40   81.9    26    2.6   193      5.7   996.6    0.00     800    71.5
 269   10:50   80.8    27    3.2   221      6.8   996.6    0.00     814    71.6
 269   11:00   76.0    34    4.9   184      8.6   996.6    0.00     824    71.7
 269   11:10   78.5    31    3.7   173      8.3   996.6    0.00     833    71.7
 269   11:20   79.3    30    2.9   187      6.1   996.6    0.00     841    71.8
 269   11:30   80.2    28    2.1   223      4.1   996.3    0.00     848    71.7

Return to Whale Point graphs page.


Western Regional Climate Center,wrcc@dri.edu